Lewisville, Texas
Current Conditions -  °F | °C
As of 7:53 PM on Monday 20 Oct 2014 (Local Time) from KDFW Reporting Station
Scattered Clouds Scattered Clouds  
Wind Chill: 71°   Ceiling: Unl
Heat Index: 71°   Visibility: 10mi
Dew Point: 59°   Wind: 7mph
Humidity: 66%   Direction: 130°SE
Pressure: 30.02"   Gusts: NA
Location:  33.05°N, 96.99°W
Report Text: KDFW 210053Z 13006KT 10SM SCT300 22/15 A3002 RMK AO2 SLP159 T02170150
Loading
Personal Weather Stations






























Interactive Weather Map
Tropical Storm Tracking
New forecast layout! Learn more

10-Day Weather Forecast

Advertisements
Track Severe Weather on mobile